Time;durP1;ratioP1;P1;durP2;ratioP2;P2;SDS_P1;SDS_P2;PMS_P1;PMS_P2;Temp;Humidity;BMP_temperature;BMP_pressure;BME280_temperature;BME280_humidity;BME280_pressure;Samples;Min_cycle;Max_cycle;Signal;HPM_P1;HPM_P2
2023/11/16 00:01:01;;;;;;;7.80;4.10;;;9.20;99.90;;;;;;5031429;28;20388;-47
2023/11/16 00:03:28;;;;;;;6.37;3.90;;;9.10;99.90;;;;;;5040689;28;20211;-46
2023/11/16 00:05:55;;;;;;;10.17;3.23;;;9.20;99.90;;;;;;5041388;28;20308;-47
2023/11/16 00:08:22;;;;;;;7.27;3.33;;;9.10;99.90;;;;;;5033918;28;20215;-45
2023/11/16 00:10:50;;;;;;;9.90;3.67;;;9.10;99.90;;;;;;5024107;28;20716;-48
2023/11/16 00:13:17;;;;;;;5.27;3.07;;;9.10;99.90;;;;;;5026056;28;20195;-44
2023/11/16 00:15:45;;;;;;;5.03;3.20;;;9.20;99.90;;;;;;5019206;28;20215;-46
2023/11/16 00:18:13;;;;;;;5.90;2.90;;;9.20;99.90;;;;;;5037238;28;20909;-47
2023/11/16 00:20:41;;;;;;;2.50;2.17;;;9.20;99.90;;;;;;5041650;28;20195;-49
2023/11/16 00:23:09;;;;;;;6.77;2.70;;;9.20;99.90;;;;;;5043537;28;20211;-47
2023/11/16 00:25:35;;;;;;;5.60;3.00;;;9.20;99.90;;;;;;5041653;28;20207;-48
2023/11/16 00:28:04;;;;;;;4.13;2.80;;;9.20;99.90;;;;;;5030497;28;20277;-49
2023/11/16 00:30:31;;;;;;;4.97;2.87;;;9.20;99.90;;;;;;5010800;28;20391;-50
2023/11/16 00:32:58;;;;;;;3.97;2.77;;;9.30;99.90;;;;;;5033615;28;20218;-47
2023/11/16 00:35:26;;;;;;;5.40;3.00;;;9.30;99.90;;;;;;5041737;28;20191;-44
2023/11/16 00:37:52;;;;;;;5.27;2.57;;;9.30;99.90;;;;;;5044190;28;20562;-48
2023/11/16 00:40:22;;;;;;;7.77;2.87;;;9.30;99.90;;;;;;5042910;28;20253;-49
2023/11/16 00:42:50;;;;;;;6.67;3.30;;;9.30;99.90;;;;;;5027403;28;20222;-52
2023/11/16 00:45:19;;;;;;;5.20;3.13;;;9.30;99.90;;;;;;5012136;28;20325;-47
2023/11/16 00:47:46;;;;;;;8.50;2.97;;;9.30;99.90;;;;;;5021665;28;20763;-46
2023/11/16 00:50:13;;;;;;;5.50;2.47;;;9.30;99.90;;;;;;5042341;28;20195;-49
2023/11/16 00:52:40;;;;;;;7.80;2.80;;;9.30;99.90;;;;;;5032527;28;20223;-52
2023/11/16 00:55:08;;;;;;;6.50;2.43;;;9.30;99.90;;;;;;5043648;28;20268;-49
2023/11/16 00:57:35;;;;;;;6.43;2.40;;;9.30;99.90;;;;;;5024602;28;20292;-47
2023/11/16 01:00:08;;;;;;;5.23;2.30;;;9.30;99.90;;;;;;5013228;28;20215;-48
2023/11/16 01:02:36;;;;;;;4.23;2.50;;;9.40;99.90;;;;;;5029839;28;20842;-46
2023/11/16 01:05:04;;;;;;;7.70;2.43;;;9.40;99.90;;;;;;5040269;28;20561;-49
2023/11/16 01:07:31;;;;;;;9.57;2.70;;;9.40;99.90;;;;;;5033755;28;20239;-46
2023/11/16 01:10:03;;;;;;;4.37;2.67;;;9.40;99.90;;;;;;5033549;28;20200;-49
2023/11/16 01:12:31;;;;;;;6.47;2.87;;;9.40;99.90;;;;;;5027573;28;20199;-45
2023/11/16 01:14:59;;;;;;;4.87;3.07;;;9.30;99.90;;;;;;5013613;28;20285;-48
2023/11/16 01:17:32;;;;;;;3.73;2.37;;;9.30;99.90;;;;;;5036478;28;20239;-46
2023/11/16 01:20:04;;;;;;;3.57;2.27;;;9.30;99.90;;;;;;5043003;28;20204;-51
2023/11/16 01:22:40;;;;;;;11.83;2.90;;;9.30;99.90;;;;;;5032295;28;20207;-46
2023/11/16 01:25:14;;;;;;;6.73;2.60;;;9.30;99.90;;;;;;5040958;28;20241;-52
2023/11/16 01:27:43;;;;;;;5.37;2.53;;;9.30;99.90;;;;;;5039503;28;20298;-48
2023/11/16 01:30:13;;;;;;;7.63;2.73;;;9.30;99.90;;;;;;4997711;28;20219;-49
2023/11/16 01:32:41;;;;;;;9.20;2.30;;;9.30;99.90;;;;;;5031942;28;20231;-47
2023/11/16 01:35:12;;;;;;;9.27;2.77;;;9.30;99.90;;;;;;5044639;28;20199;-46
2023/11/16 01:37:39;;;;;;;3.53;2.37;;;9.30;99.90;;;;;;5029846;28;20245;-44
2023/11/16 01:40:07;;;;;;;4.97;2.23;;;9.30;99.90;;;;;;5043461;28;20200;-47
2023/11/16 01:42:34;;;;;;;7.03;2.33;;;9.30;99.90;;;;;;5040028;28;20249;-49
2023/11/16 01:45:01;;;;;;;7.77;1.87;;;9.30;99.90;;;;;;4996846;28;20682;-45
2023/11/16 01:47:27;;;;;;;6.07;1.97;;;9.30;99.90;;;;;;5035332;28;20269;-53
2023/11/16 01:49:55;;;;;;;5.90;2.10;;;9.30;99.90;;;;;;5029455;28;20357;-50
2023/11/16 01:52:23;;;;;;;6.00;2.00;;;9.20;99.90;;;;;;5038760;28;20227;-48
2023/11/16 01:54:50;;;;;;;5.80;1.97;;;9.20;99.90;;;;;;5031910;28;20195;-50
2023/11/16 01:57:18;;;;;;;5.10;2.10;;;9.20;99.90;;;;;;5041441;28;20215;-45
2023/11/16 01:59:45;;;;;;;3.87;1.40;;;9.10;99.90;;;;;;5014566;28;20210;-49
2023/11/16 02:02:12;;;;;;;3.70;1.50;;;9.10;99.90;;;;;;5024804;28;20207;-44
2023/11/16 02:04:39;;;;;;;5.23;1.40;;;9.10;99.90;;;;;;5034279;28;20223;-48
2023/11/16 02:07:06;;;;;;;7.37;1.60;;;9.00;99.90;;;;;;5037221;28;20302;-46
2023/11/16 02:09:34;;;;;;;8.23;1.67;;;9.00;99.90;;;;;;5034482;28;20203;-43
2023/11/16 02:12:01;;;;;;;5.53;1.67;;;9.00;99.90;;;;;;5038291;28;20905;-45
2023/11/16 02:14:29;;;;;;;3.63;1.40;;;9.00;99.90;;;;;;5029032;28;20199;-47
2023/11/16 02:16:56;;;;;;;11.07;1.87;;;9.00;99.90;;;;;;5010577;28;20256;-49
2023/11/16 02:19:30;;;;;;;3.47;1.40;;;8.90;99.90;;;;;;5034945;28;20330;-46
2023/11/16 02:21:58;;;;;;;5.43;1.70;;;8.90;99.90;;;;;;5029354;28;20203;-47
2023/11/16 02:24:27;;;;;;;2.83;1.27;;;8.90;99.90;;;;;;5039444;28;20242;-46
2023/11/16 02:26:54;;;;;;;6.27;1.40;;;8.90;99.90;;;;;;5029262;28;20243;-51
2023/11/16 02:29:24;;;;;;;2.37;1.07;;;8.90;99.90;;;;;;5042292;28;20749;-50
2023/11/16 02:31:53;;;;;;;5.00;1.37;;;8.90;99.90;;;;;;5002351;28;20275;-51
2023/11/16 02:34:19;;;;;;;1.13;0.90;;;8.90;99.90;;;;;;5029214;28;20211;-46
2023/11/16 02:36:46;;;;;;;2.43;0.87;;;8.90;99.90;;;;;;5041166;28;20211;-50
2023/11/16 02:39:15;;;;;;;2.97;0.93;;;8.90;99.90;;;;;;5041368;28;20813;-48
2023/11/16 02:41:45;;;;;;;3.67;0.93;;;8.90;99.90;;;;;;5033888;28;20565;-52
2023/11/16 02:44:14;;;;;;;2.83;1.00;;;8.90;99.90;;;;;;5038415;28;20211;-45
2023/11/16 02:46:41;;;;;;;6.87;1.10;;;8.90;99.90;;;;;;5017811;28;20226;-51
2023/11/16 02:49:08;;;;;;;3.50;1.03;;;8.80;99.90;;;;;;5012455;28;20211;-48
2023/11/16 02:51:35;;;;;;;4.57;1.00;;;8.80;99.90;;;;;;5041589;28;20740;-47
2023/11/16 02:54:06;;;;;;;5.40;1.13;;;8.80;99.90;;;;;;5038843;28;20183;-46
2023/11/16 02:56:33;;;;;;;3.13;0.97;;;8.70;99.90;;;;;;5033667;28;20580;-44
2023/11/16 02:59:01;;;;;;;6.10;0.83;;;8.70;99.90;;;;;;5038568;28;20184;-47
2023/11/16 03:01:29;;;;;;;3.47;0.90;;;8.70;99.90;;;;;;5024559;28;20203;-48
2023/11/16 03:03:55;;;;;;;3.97;0.70;;;8.70;99.90;;;;;;5002177;28;20219;-53
2023/11/16 03:06:22;;;;;;;1.90;0.93;;;8.70;99.90;;;;;;5036063;28;20209;-51
2023/11/16 03:08:49;;;;;;;4.40;0.77;;;8.70;99.90;;;;;;5037161;28;20195;-53
2023/11/16 03:11:16;;;;;;;3.77;0.70;;;8.70;99.90;;;;;;5038310;28;20878;-45
2023/11/16 03:13:43;;;;;;;5.13;0.73;;;8.70;99.90;;;;;;5034067;28;20203;-51
2023/11/16 03:16:11;;;;;;;5.33;1.07;;;8.60;99.90;;;;;;5039165;28;20225;-45
2023/11/16 03:18:38;;;;;;;1.33;0.60;;;8.60;99.90;;;;;;5024769;28;20280;-50
2023/11/16 03:21:05;;;;;;;2.50;0.77;;;8.60;99.90;;;;;;5014790;28;20195;-51
2023/11/16 03:23:34;;;;;;;2.03;0.73;;;8.60;99.90;;;;;;5039002;28;20219;-46
2023/11/16 03:26:04;;;;;;;2.20;1.90;;;8.50;99.90;;;;;;5038172;28;20256;-49
2023/11/16 03:28:31;;;;;;;5.90;0.90;;;8.50;99.90;;;;;;5033265;28;20227;-44
2023/11/16 03:30:58;;;;;;;3.73;1.07;;;8.50;99.90;;;;;;5038123;28;20203;-45
2023/11/16 03:33:27;;;;;;;2.27;1.00;;;8.40;99.90;;;;;;5021406;28;20207;-43
2023/11/16 03:35:53;;;;;;;1.97;1.23;;;8.30;99.90;;;;;;5009776;28;20207;-48
2023/11/16 03:38:20;;;;;;;2.27;0.97;;;8.30;99.90;;;;;;5042109;28;20219;-45
2023/11/16 03:40:49;;;;;;;2.67;1.03;;;8.20;99.90;;;;;;5039718;28;20701;-49
2023/11/16 03:43:16;;;;;;;1.97;1.00;;;8.10;99.90;;;;;;5032552;28;20207;-48
2023/11/16 03:45:42;;;;;;;2.57;0.50;;;8.00;99.90;;;;;;5039686;28;20241;-46
2023/11/16 03:48:11;;;;;;;1.03;0.30;;;7.80;99.90;;;;;;5038877;28;20261;-45
2023/11/16 03:50:41;;;;;;;0.63;0.50;;;7.70;99.90;;;;;;5022054;28;20578;-48
2023/11/16 03:53:08;;;;;;;0.40;0.40;;;7.60;99.90;;;;;;5019129;28;20203;-48
2023/11/16 03:55:35;;;;;;;1.03;0.30;;;7.50;99.90;;;;;;5041524;28;20187;-48
2023/11/16 03:58:02;;;;;;;1.33;0.30;;;7.40;99.90;;;;;;5029970;28;20234;-49
2023/11/16 04:00:30;;;;;;;1.60;0.40;;;7.40;99.90;;;;;;5041066;28;20246;-46
2023/11/16 04:02:59;;;;;;;0.73;0.40;;;7.40;99.90;;;;;;5036600;28;20195;-43
2023/11/16 04:05:26;;;;;;;0.57;0.47;;;7.30;99.90;;;;;;5024922;28;20315;-45
2023/11/16 04:07:55;;;;;;;1.00;0.40;;;7.30;99.90;;;;;;5009780;28;20249;-49
2023/11/16 04:10:22;;;;;;;0.70;0.60;;;7.20;99.90;;;;;;5041712;28;20682;-50
2023/11/16 04:12:49;;;;;;;0.30;0.30;;;7.10;99.90;;;;;;5039670;28;20199;-49
2023/11/16 04:15:17;;;;;;;1.70;0.63;;;7.10;99.90;;;;;;5032135;28;20866;-46
2023/11/16 04:17:44;;;;;;;0.60;0.40;;;7.00;99.90;;;;;;5040497;28;20693;-50
2023/11/16 04:20:12;;;;;;;2.67;0.40;;;6.90;99.90;;;;;;5023348;28;20982;-45
2023/11/16 04:22:40;;;;;;;0.40;0.30;;;6.90;99.90;;;;;;5009700;28;20272;-50
2023/11/16 04:25:18;;;;;;;0.37;0.33;;;6.80;99.90;;;;;;5037128;28;20250;-48
2023/11/16 04:27:49;;;;;;;1.87;0.50;;;6.80;99.90;;;;;;5038343;28;20211;-49
2023/11/16 04:30:16;;;;;;;0.57;0.53;;;6.80;99.90;;;;;;5022943;28;20215;-47
2023/11/16 04:32:45;;;;;;;1.63;0.30;;;6.80;99.90;;;;;;5032891;28;20687;-48
2023/11/16 04:35:13;;;;;;;0.87;0.43;;;6.80;99.90;;;;;;5033900;28;20199;-49
2023/11/16 04:37:40;;;;;;;0.43;0.30;;;6.80;99.90;;;;;;4999277;28;24715;-44
2023/11/16 04:40:10;;;;;;;1.10;0.33;;;6.80;99.90;;;;;;5040985;28;20195;-47
2023/11/16 04:42:39;;;;;;;1.77;0.80;;;6.70;99.90;;;;;;5036370;28;20226;-44
2023/11/16 04:45:09;;;;;;;4.30;0.80;;;6.70;99.90;;;;;;5032316;28;20222;-52
2023/11/16 04:47:37;;;;;;;2.33;0.70;;;6.70;99.90;;;;;;5038970;28;20215;-47
2023/11/16 04:50:06;;;;;;;1.00;0.73;;;6.70;99.90;;;;;;5040559;28;20663;-49
2023/11/16 04:52:33;;;;;;;0.70;0.60;;;6.70;99.90;;;;;;5019706;28;20199;-47
2023/11/16 04:55:00;;;;;;;0.70;0.70;;;6.70;99.90;;;;;;5016598;28;20195;-43
2023/11/16 04:57:28;;;;;;;0.97;0.90;;;6.70;99.90;;;;;;5029269;28;20512;-44
2023/11/16 04:59:56;;;;;;;2.50;1.00;;;6.60;99.90;;;;;;5044556;28;20200;-43
2023/11/16 05:02:23;;;;;;;2.20;1.60;;;6.50;99.90;;;;;;5021776;28;20208;-45
2023/11/16 05:04:51;;;;;;;1.53;1.30;;;6.50;99.90;;;;;;5044522;28;20261;-45
2023/11/16 05:07:18;;;;;;;0.90;0.90;;;6.50;99.90;;;;;;5018013;28;20223;-49
2023/11/16 05:09:45;;;;;;;1.40;1.30;;;6.50;99.90;;;;;;5006181;28;20575;-44
2023/11/16 05:12:11;;;;;;;2.13;1.30;;;6.50;99.90;;;;;;5035932;28;20203;-48
2023/11/16 05:14:39;;;;;;;2.17;1.10;;;6.50;99.90;;;;;;5042469;28;20277;-48
2023/11/16 05:17:06;;;;;;;1.80;1.40;;;6.40;99.90;;;;;;5031000;28;20246;-51
2023/11/16 05:19:33;;;;;;;1.93;1.47;;;6.40;99.90;;;;;;5040367;28;20313;-45
2023/11/16 05:22:01;;;;;;;2.40;1.80;;;6.40;99.90;;;;;;5035010;28;20715;-47
2023/11/16 05:24:29;;;;;;;1.40;1.30;;;6.30;99.90;;;;;;5001147;28;21762;-51
2023/11/16 05:27:01;;;;;;;2.10;1.27;;;6.30;99.90;;;;;;5036533;28;20222;-46
2023/11/16 05:29:29;;;;;;;2.63;1.50;;;6.20;99.90;;;;;;5038052;28;20191;-46
2023/11/16 05:31:58;;;;;;;1.27;1.03;;;6.20;99.90;;;;;;5035448;28;20280;-49
2023/11/16 05:34:27;;;;;;;1.50;1.40;;;6.10;99.90;;;;;;5037665;28;20725;-44
2023/11/16 05:36:55;;;;;;;1.27;1.17;;;6.10;99.90;;;;;;5044218;28;20268;-45
2023/11/16 05:39:22;;;;;;;1.50;1.40;;;6.00;99.90;;;;;;5020323;28;20290;-52
2023/11/16 05:41:49;;;;;;;1.73;1.63;;;6.00;99.90;;;;;;5005852;28;20203;-48
2023/11/16 05:44:17;;;;;;;1.50;1.40;;;6.00;99.90;;;;;;5041533;28;20216;-54
2023/11/16 05:46:44;;;;;;;1.10;1.00;;;6.00;99.90;;;;;;5030380;28;20219;-44
2023/11/16 05:49:13;;;;;;;1.00;1.00;;;6.00;99.90;;;;;;5041895;28;20283;-53
2023/11/16 05:51:40;;;;;;;1.97;1.13;;;5.90;99.90;;;;;;5042317;28;20187;-44
2023/11/16 05:54:08;;;;;;;2.13;1.23;;;5.90;99.90;;;;;;5032429;28;20219;-53
2023/11/16 05:56:40;;;;;;;1.20;1.13;;;5.90;99.90;;;;;;4998775;28;20432;-44
2023/11/16 05:59:08;;;;;;;1.50;1.40;;;5.80;99.90;;;;;;5032244;28;20231;-53
2023/11/16 06:01:35;;;;;;;1.60;1.50;;;5.80;99.90;;;;;;5032453;28;20207;-49
2023/11/16 06:04:03;;;;;;;1.20;1.10;;;5.80;99.90;;;;;;5043789;28;20192;-46
2023/11/16 06:06:32;;;;;;;1.17;1.17;;;5.80;99.90;;;;;;5039565;28;20226;-46
2023/11/16 06:08:59;;;;;;;1.50;1.40;;;5.70;99.90;;;;;;5034338;28;20661;-46
2023/11/16 06:11:26;;;;;;;1.80;1.70;;;5.70;99.90;;;;;;4995578;28;20204;-45
2023/11/16 06:13:55;;;;;;;1.77;1.67;;;5.70;99.90;;;;;;5035774;28;20265;-43
2023/11/16 06:16:22;;;;;;;1.23;1.13;;;5.60;99.90;;;;;;5039705;28;20244;-53
2023/11/16 06:18:50;;;;;;;1.20;1.10;;;5.60;99.90;;;;;;5031933;28;20207;-47
2023/11/16 06:21:17;;;;;;;1.80;1.70;;;5.50;99.90;;;;;;5036216;28;20282;-52
2023/11/16 06:23:45;;;;;;;1.00;1.00;;;5.50;99.90;;;;;;5041175;28;20207;-45
2023/11/16 06:26:12;;;;;;;1.60;1.50;;;5.50;99.90;;;;;;5016527;28;20224;-52
2023/11/16 06:28:39;;;;;;;0.87;0.87;;;5.40;99.90;;;;;;5002946;28;20355;-44
2023/11/16 06:31:06;;;;;;;1.30;1.20;;;5.40;99.90;;;;;;5042497;28;20569;-52
2023/11/16 06:33:34;;;;;;;1.40;1.30;;;5.40;99.90;;;;;;5028736;28;20222;-46
2023/11/16 06:36:02;;;;;;;1.30;1.20;;;5.40;99.90;;;;;;5041725;28;20192;-43
2023/11/16 06:38:30;;;;;;;1.83;1.30;;;5.40;99.90;;;;;;5038314;28;20211;-44
2023/11/16 06:40:58;;;;;;;1.10;1.10;;;5.40;99.90;;;;;;5023064;28;20282;-46
2023/11/16 06:43:25;;;;;;;1.20;1.10;;;5.40;99.90;;;;;;4993581;28;20284;-43
2023/11/16 06:45:52;;;;;;;1.27;1.17;;;5.30;99.90;;;;;;5039542;28;20281;-47
2023/11/16 06:48:19;;;;;;;1.30;1.20;;;5.30;99.90;;;;;;5038386;28;20222;-53
2023/11/16 06:50:49;;;;;;;1.43;1.00;;;5.30;99.90;;;;;;5034395;28;20231;-47
2023/11/16 06:53:16;;;;;;;1.10;1.10;;;5.30;99.90;;;;;;5039799;28;20196;-45
2023/11/16 06:55:44;;;;;;;1.07;0.83;;;5.30;99.90;;;;;;5041123;28;20215;-46
2023/11/16 06:58:12;;;;;;;0.97;0.97;;;5.30;99.90;;;;;;4996776;28;20230;-43
2023/11/16 07:00:39;;;;;;;0.87;0.87;;;5.30;99.90;;;;;;5040939;28;20946;-48
2023/11/16 07:03:06;;;;;;;0.70;0.70;;;5.30;99.90;;;;;;5041817;28;20207;-43
2023/11/16 07:05:34;;;;;;;5.43;1.17;;;5.30;99.90;;;;;;5031048;28;20901;-48
2023/11/16 07:08:02;;;;;;;0.90;0.90;;;5.30;99.90;;;;;;5042577;28;20203;-46
2023/11/16 07:10:29;;;;;;;0.73;0.73;;;5.30;99.90;;;;;;5038548;28;20191;-43
2023/11/16 07:12:56;;;;;;;0.90;0.90;;;5.30;99.90;;;;;;5027536;28;20199;-43
2023/11/16 07:15:24;;;;;;;0.97;0.97;;;5.30;99.90;;;;;;5005102;28;20278;-44
2023/11/16 07:17:52;;;;;;;1.00;1.00;;;5.30;99.90;;;;;;5039671;28;20792;-48
2023/11/16 07:20:21;;;;;;;0.80;0.60;;;5.30;99.90;;;;;;5031258;28;20739;-50
2023/11/16 07:22:48;;;;;;;2.27;0.80;;;5.30;99.90;;;;;;5033732;28;20214;-44
2023/11/16 07:25:20;;;;;;;0.70;0.67;;;5.30;99.90;;;;;;5032196;28;20215;-48
2023/11/16 07:27:47;;;;;;;1.00;1.00;;;5.30;99.90;;;;;;5041115;28;20307;-44
2023/11/16 07:30:14;;;;;;;0.90;0.90;;;5.30;99.90;;;;;;4994429;28;20215;-45
2023/11/16 07:32:43;;;;;;;0.97;0.97;;;5.30;99.90;;;;;;5037362;28;20210;-48
2023/11/16 07:35:15;;;;;;;1.13;1.03;;;5.40;99.90;;;;;;5041938;28;20199;-44
2023/11/16 07:37:44;;;;;;;1.30;1.20;;;5.30;99.90;;;;;;5032854;28;20234;-47
2023/11/16 07:40:12;;;;;;;1.17;0.70;;;5.40;99.90;;;;;;5041987;28;20191;-49
2023/11/16 07:42:39;;;;;;;0.97;0.97;;;5.40;99.90;;;;;;5038829;28;20206;-51
2023/11/16 07:45:09;;;;;;;1.03;0.93;;;5.30;99.90;;;;;;5018505;28;20294;-47
2023/11/16 07:47:38;;;;;;;1.00;0.97;;;5.30;99.90;;;;;;5032665;28;20227;-48
2023/11/16 07:50:10;;;;;;;0.87;0.87;;;5.30;99.90;;;;;;5040040;28;20202;-45
2023/11/16 07:52:43;;;;;;;1.57;0.90;;;5.30;99.90;;;;;;5032850;28;20574;-51
2023/11/16 07:55:11;;;;;;;0.70;0.70;;;5.40;99.90;;;;;;5039308;28;20195;-43
2023/11/16 07:57:39;;;;;;;0.80;0.73;;;5.40;99.90;;;;;;5039265;28;20219;-47
2023/11/16 08:00:11;;;;;;;0.80;0.80;;;5.30;99.90;;;;;;5016710;28;20582;-44
2023/11/16 08:03:42;;;;;;;1.50;1.00;;;5.30;99.90;;;;;;5030831;28;20673;-50
2023/11/16 08:05:30;;;;;;;1.43;0.83;;;5.30;99.90;;;;;;5041337;28;20230;-50
2023/11/16 08:07:57;;;;;;;0.60;0.60;;;5.30;99.90;;;;;;5033264;28;20227;-47
2023/11/16 08:10:26;;;;;;;1.10;0.90;;;5.30;99.90;;;;;;5036582;28;20191;-45
2023/11/16 08:12:54;;;;;;;0.67;0.67;;;5.40;99.90;;;;;;5039045;28;20923;-48
2023/11/16 08:15:24;;;;;;;0.87;0.83;;;5.40;99.90;;;;;;5041324;28;20184;-48
2023/11/16 08:17:53;;;;;;;1.77;0.90;;;5.40;99.90;;;;;;5009382;28;20997;-51
2023/11/16 08:20:23;;;;;;;0.80;0.80;;;5.40;99.90;;;;;;5039354;28;20210;-46
2023/11/16 08:22:51;;;;;;;1.17;0.90;;;5.50;99.90;;;;;;5028312;28;20207;-45
2023/11/16 08:25:22;;;;;;;1.97;0.90;;;5.50;99.90;;;;;;5040381;28;20486;-44
2023/11/16 08:27:50;;;;;;;3.10;1.00;;;5.50;99.90;;;;;;5042165;28;20228;-44
2023/11/16 08:30:17;;;;;;;2.37;0.93;;;5.50;99.90;;;;;;5043362;28;20269;-44
2023/11/16 08:32:44;;;;;;;1.10;0.90;;;5.60;99.90;;;;;;5014973;28;20238;-49
2023/11/16 08:35:13;;;;;;;1.10;1.00;;;5.60;99.90;;;;;;5045608;28;20195;-45
2023/11/16 08:37:41;;;;;;;1.07;0.97;;;5.60;99.90;;;;;;5037620;28;20223;-51
2023/11/16 08:40:11;;;;;;;1.03;1.00;;;5.60;99.90;;;;;;5041979;28;20199;-48
2023/11/16 08:42:41;;;;;;;1.30;1.20;;;5.60;99.90;;;;;;5042565;28;20572;-50
2023/11/16 08:45:17;;;;;;;4.10;1.00;;;5.60;99.90;;;;;;5044419;28;20666;-46
2023/11/16 08:47:45;;;;;;;1.90;1.10;;;5.70;99.90;;;;;;5018615;28;20230;-51
2023/11/16 08:50:13;;;;;;;4.43;1.90;;;5.70;99.90;;;;;;5047929;28;20223;-47
2023/11/16 08:52:42;;;;;;;1.43;0.93;;;5.70;99.90;;;;;;5042086;28;20613;-52
2023/11/16 08:55:12;;;;;;;0.80;0.80;;;5.70;99.90;;;;;;5036667;28;20681;-45
2023/11/16 08:57:40;;;;;;;1.10;1.00;;;5.70;99.90;;;;;;5041829;28;20229;-51
2023/11/16 09:02:51;;;;;;;2.30;0.87;;;5.70;99.90;;;;;;5033916;28;20274;-45
2023/11/16 09:05:18;;;;;;;0.90;0.90;;;5.70;99.90;;;;;;5021198;28;20203;-46
2023/11/16 09:07:45;;;;;;;0.80;0.70;;;5.70;99.90;;;;;;5041047;28;20227;-45
2023/11/16 09:10:14;;;;;;;1.73;0.80;;;5.70;99.90;;;;;;5038603;28;20262;-45
2023/11/16 09:12:42;;;;;;;0.90;0.80;;;5.70;99.90;;;;;;5041562;28;20199;-49
2023/11/16 09:15:10;;;;;;;0.77;0.77;;;5.80;99.90;;;;;;5042456;28;20226;-47
2023/11/16 09:17:37;;;;;;;0.80;0.80;;;5.80;99.90;;;;;;5040145;28;20211;-50
2023/11/16 09:20:10;;;;;;;1.03;0.73;;;5.80;99.90;;;;;;5021463;28;20239;-45
2023/11/16 09:22:38;;;;;;;0.77;0.77;;;5.80;99.90;;;;;;5038499;28;20696;-51
2023/11/16 09:25:10;;;;;;;0.90;0.90;;;5.80;99.90;;;;;;5032395;28;20957;-48
2023/11/16 09:27:38;;;;;;;1.20;0.60;;;5.80;99.90;;;;;;5027377;28;20245;-48
2023/11/16 09:30:07;;;;;;;0.80;0.50;;;5.80;99.90;;;;;;5041243;28;20207;-49
2023/11/16 09:32:33;;;;;;;0.70;0.70;;;5.70;99.90;;;;;;5042743;28;20271;-47
2023/11/16 09:35:01;;;;;;;0.70;0.50;;;5.70;99.90;;;;;;5016650;28;20215;-48
2023/11/16 09:37:29;;;;;;;0.80;0.80;;;5.70;99.90;;;;;;5040214;28;20218;-47
2023/11/16 09:39:56;;;;;;;0.63;0.63;;;5.70;99.90;;;;;;5035653;28;20207;-45
2023/11/16 09:42:31;;;;;;;0.40;0.40;;;5.70;99.90;;;;;;5044619;28;20567;-48
2023/11/16 09:45:03;;;;;;;1.00;0.60;;;5.70;99.90;;;;;;5038464;28;20356;-47
2023/11/16 09:47:35;;;;;;;2.50;0.60;;;5.70;99.90;;;;;;5042613;28;20215;-51
2023/11/16 09:50:08;;;;;;;2.03;0.73;;;5.70;99.90;;;;;;5042700;28;21084;-47
2023/11/16 09:52:38;;;;;;;0.70;0.70;;;5.70;99.90;;;;;;5016088;28;20678;-51
2023/11/16 09:55:09;;;;;;;1.47;0.80;;;5.70;99.90;;;;;;5043551;28;20670;-47
2023/11/16 09:57:41;;;;;;;0.60;0.60;;;5.70;99.90;;;;;;5032492;28;20285;-50
2023/11/16 10:00:18;;;;;;;2.10;0.50;;;5.70;99.90;;;;;;5041307;28;20735;-47
2023/11/16 10:02:46;;;;;;;0.80;0.50;;;5.70;99.90;;;;;;5039794;28;20195;-46
2023/11/16 10:05:23;;;;;;;0.50;0.50;;;5.70;99.90;;;;;;5043780;28;20267;-45
2023/11/16 10:07:53;;;;;;;0.70;0.70;;;5.70;99.90;;;;;;5016605;28;20219;-48
2023/11/16 10:10:20;;;;;;;0.80;0.67;;;5.70;99.90;;;;;;5043913;28;20206;-47
2023/11/16 10:12:49;;;;;;;0.90;0.70;;;5.70;99.90;;;;;;5031849;28;20195;-48
2023/11/16 10:15:20;;;;;;;0.60;0.60;;;5.70;99.90;;;;;;5043522;28;20615;-49
2023/11/16 10:17:48;;;;;;;0.50;0.50;;;5.80;99.90;;;;;;5039900;28;20207;-45
2023/11/16 10:20:16;;;;;;;1.20;1.07;;;5.80;99.90;;;;;;5043455;28;20245;-45
2023/11/16 10:22:44;;;;;;;2.30;0.77;;;5.80;99.90;;;;;;5015113;28;20268;-49
2023/11/16 10:25:11;;;;;;;0.80;0.63;;;5.80;99.90;;;;;;5043429;28;20203;-48
2023/11/16 10:27:39;;;;;;;0.53;0.50;;;5.80;99.90;;;;;;5033694;28;20733;-46
2023/11/16 10:30:11;;;;;;;0.73;0.73;;;5.80;99.90;;;;;;5042083;28;20207;-49
2023/11/16 10:32:42;;;;;;;0.80;0.80;;;5.90;99.90;;;;;;5039013;28;20202;-49
2023/11/16 10:35:13;;;;;;;0.60;0.60;;;5.90;99.90;;;;;;5043009;28;20269;-48
2023/11/16 10:37:42;;;;;;;0.60;0.60;;;5.90;99.90;;;;;;5013222;28;20220;-47
2023/11/16 10:40:10;;;;;;;1.00;0.57;;;5.90;99.90;;;;;;5041332;28;20199;-46
2023/11/16 10:42:41;;;;;;;0.57;0.47;;;5.90;99.90;;;;;;5034098;28;20200;-45
2023/11/16 10:45:14;;;;;;;0.93;0.60;;;5.90;99.90;;;;;;5042159;28;20203;-45
2023/11/16 10:47:44;;;;;;;1.13;0.40;;;6.00;99.90;;;;;;5038643;28;20269;-46
2023/11/16 10:50:15;;;;;;;1.50;0.60;;;6.00;99.90;;;;;;5041798;28;20183;-46
2023/11/16 10:52:43;;;;;;;1.20;0.50;;;6.00;99.90;;;;;;5012863;28;20207;-48
2023/11/16 10:55:16;;;;;;;0.60;0.60;;;5.90;99.90;;;;;;5038678;28;20922;-48
2023/11/16 10:57:43;;;;;;;0.40;0.40;;;5.90;99.90;;;;;;5042664;28;20237;-47
2023/11/16 11:00:16;;;;;;;0.40;0.40;;;5.90;99.90;;;;;;5030435;28;20407;-47
2023/11/16 11:02:46;;;;;;;1.30;0.77;;;5.90;99.90;;;;;;5042338;28;20270;-49
2023/11/16 11:05:17;;;;;;;0.30;0.30;;;6.00;99.90;;;;;;5036995;28;20351;-47
2023/11/16 11:07:48;;;;;;;1.43;0.30;;;5.90;99.90;;;;;;5012504;28;20230;-47
2023/11/16 11:10:17;;;;;;;0.50;0.50;;;5.90;99.90;;;;;;5038934;28;20259;-46
2023/11/16 11:12:46;;;;;;;3.70;0.50;;;5.90;99.90;;;;;;5042106;28;20257;-46
2023/11/16 11:15:24;;;;;;;1.37;0.50;;;6.00;99.90;;;;;;5031196;28;20800;-48
2023/11/16 11:17:54;;;;;;;0.30;0.30;;;6.00;99.90;;;;;;5037963;28;20257;-46
2023/11/16 11:20:31;;;;;;;0.37;0.33;;;6.00;99.90;;;;;;5039671;28;20203;-44
2023/11/16 11:23:08;;;;;;;1.10;0.40;;;6.00;99.90;;;;;;5022864;28;20195;-45
2023/11/16 11:25:37;;;;;;;0.40;0.40;;;6.00;99.90;;;;;;5040428;28;20202;-48
2023/11/16 11:28:05;;;;;;;0.60;0.40;;;6.00;99.90;;;;;;5039245;28;20830;-48
2023/11/16 11:30:32;;;;;;;0.40;0.30;;;6.10;99.90;;;;;;5041166;28;20202;-47
2023/11/16 11:33:07;;;;;;;0.50;0.40;;;6.10;99.90;;;;;;5039870;28;20279;-44
2023/11/16 11:35:35;;;;;;;0.73;0.50;;;6.10;99.90;;;;;;5040908;28;20195;-46
2023/11/16 11:38:03;;;;;;;1.60;0.43;;;6.10;99.90;;;;;;5018776;28;20219;-44
2023/11/16 11:40:30;;;;;;;0.63;0.63;;;6.10;99.90;;;;;;5037540;28;20215;-47
2023/11/16 11:42:58;;;;;;;0.50;0.50;;;6.20;99.90;;;;;;5040369;28;20191;-47
2023/11/16 11:45:29;;;;;;;0.57;0.47;;;6.20;99.90;;;;;;5040171;28;20224;-50
2023/11/16 11:47:56;;;;;;;0.63;0.50;;;6.30;99.90;;;;;;5034693;28;20268;-46
2023/11/16 11:50:27;;;;;;;0.40;0.40;;;6.30;99.90;;;;;;5040088;28;20523;-52
2023/11/16 11:52:55;;;;;;;0.60;0.60;;;6.40;99.90;;;;;;5031217;28;20204;-45
2023/11/16 11:55:25;;;;;;;0.60;0.40;;;6.50;99.90;;;;;;5016312;28;20248;-46
2023/11/16 11:57:52;;;;;;;0.50;0.50;;;6.50;99.90;;;;;;5041442;28;20234;-47
2023/11/16 12:00:22;;;;;;;0.33;0.33;;;6.50;99.90;;;;;;5039717;28;20195;-50
2023/11/16 12:02:50;;;;;;;0.50;0.50;;;6.50;99.90;;;;;;5045851;28;20290;-50
2023/11/16 12:05:17;;;;;;;0.40;0.30;;;6.50;99.90;;;;;;5041914;28;20282;-48
2023/11/16 12:07:58;;;;;;;0.60;0.50;;;6.50;99.90;;;;;;5045592;28;21650;-47
2023/11/16 12:10:25;;;;;;;0.90;0.40;;;6.40;99.90;;;;;;5012641;28;20227;-45
2023/11/16 12:12:52;;;;;;;0.90;0.40;;;6.50;99.90;;;;;;5045223;28;20200;-48
2023/11/16 12:15:19;;;;;;;1.70;0.50;;;6.40;99.90;;;;;;5041256;28;20192;-47
2023/11/16 12:17:46;;;;;;;0.60;0.30;;;6.40;99.90;;;;;;5043986;28;20245;-46
2023/11/16 12:20:13;;;;;;;0.43;0.43;;;6.40;99.90;;;;;;5041672;28;20199;-47
2023/11/16 12:22:41;;;;;;;0.50;0.50;;;6.40;99.90;;;;;;5045317;28;20206;-47
2023/11/16 12:25:12;;;;;;;0.73;0.60;;;6.40;99.90;;;;;;5012156;28;20545;-45
2023/11/16 12:27:41;;;;;;;0.70;0.50;;;6.40;99.90;;;;;;5039312;28;20770;-49
2023/11/16 12:30:17;;;;;;;0.50;0.50;;;6.40;99.90;;;;;;5041661;28;20286;-46
2023/11/16 12:32:44;;;;;;;1.90;0.60;;;6.40;99.90;;;;;;5044667;28;20203;-45
2023/11/16 12:35:13;;;;;;;0.83;0.73;;;6.40;99.90;;;;;;5041459;28;20215;-50
2023/11/16 12:37:42;;;;;;;1.07;0.60;;;6.40;99.90;;;;;;5045077;28;20233;-48
2023/11/16 12:40:17;;;;;;;0.57;0.57;;;6.40;99.90;;;;;;5008660;28;20204;-47
2023/11/16 12:42:44;;;;;;;0.40;0.40;;;6.40;99.90;;;;;;5045010;28;20208;-48
2023/11/16 12:45:11;;;;;;;0.43;0.43;;;6.40;99.90;;;;;;5041372;28;20192;-46
2023/11/16 12:47:38;;;;;;;0.80;0.77;;;6.40;99.90;;;;;;5043507;28;20227;-46
2023/11/16 12:50:06;;;;;;;0.70;0.70;;;6.40;99.90;;;;;;5041699;28;20219;-47
2023/11/16 12:52:34;;;;;;;0.87;0.53;;;6.50;99.90;;;;;;5044649;28;20206;-49
2023/11/16 12:55:04;;;;;;;0.50;0.50;;;6.50;99.90;;;;;;5023548;28;20283;-45
2023/11/16 12:57:32;;;;;;;1.00;0.50;;;6.60;99.90;;;;;;5039779;28;20246;-48
2023/11/16 13:00:00;;;;;;;0.57;0.40;;;6.60;99.90;;;;;;5043162;28;20202;-46
2023/11/16 13:02:28;;;;;;;2.30;0.50;;;6.60;99.90;;;;;;5040412;28;20191;-46
2023/11/16 13:04:56;;;;;;;1.90;0.50;;;6.60;99.90;;;;;;5043814;28;20245;-48
2023/11/16 13:07:24;;;;;;;0.40;0.30;;;6.60;99.90;;;;;;5042424;28;20243;-46